Time;durP1;ratioP1;P1;durP2;ratioP2;P2;SDS_P1;SDS_P2;PMS_P1;PMS_P2;Temp;Humidity;BMP_temperature;BMP_pressure;BME280_temperature;BME280_humidity;BME280_pressure;Samples;Min_cycle;Max_cycle;Signal;HPM_P1;HPM_P2
2023/08/01 01:07:04;;;;;;;5.87;4.10;;;17.20;99.90;;;;;;5859598;24;20421;-91
2023/08/01 03:43:23;;;;;;;;;;;;;;;;;;;;;
2023/08/01 03:49:52;;;;;;;8.20;5.30;;;17.10;99.90;;;;;;6192736;23;20496;-91
2023/08/01 04:32:12;;;;;;;;;;;;;;;;;;;;;
2023/08/01 05:01:58;;;;;;;5.30;4.43;;;17.40;99.90;;;;;;5925786;23;20452;-92
2023/08/01 05:07:02;;;;;;;4.40;4.00;;;17.40;99.90;;;;;;6183991;23;20929;-90
2023/08/01 05:09:31;;;;;;;4.37;3.97;;;17.40;99.90;;;;;;6214154;23;20449;-88
2023/08/01 05:12:11;;;;;;;7.60;5.27;;;17.40;99.90;;;;;;6231834;23;20421;-91
2023/08/01 05:14:38;;;;;;;7.60;4.40;;;;;;;;;;6227606;23;20516;-87
2023/08/01 05:17:06;;;;;;;6.70;4.30;;;17.40;99.90;;;;;;6231785;23;20467;-89
2023/08/01 05:19:36;;;;;;;5.10;4.40;;;17.40;99.90;;;;;;6224035;23;20525;-91
2023/08/01 05:22:05;;;;;;;5.97;4.20;;;17.30;99.90;;;;;;6225405;23;20398;-88
2023/08/01 05:24:31;;;;;;;6.10;4.73;;;17.40;99.90;;;;;;6222252;23;20440;-88
2023/08/01 05:26:58;;;;;;;6.80;3.80;;;17.30;99.90;;;;;;6224192;23;20416;-87
2023/08/01 05:29:25;;;;;;;5.33;4.83;;;17.40;99.90;;;;;;6243895;23;20426;-87
2023/08/01 05:31:52;;;;;;;4.93;4.03;;;17.40;99.90;;;;;;6243049;22;20402;-87
2023/08/01 05:34:19;;;;;;;5.47;4.03;;;17.40;99.90;;;;;;6224978;23;20869;-88
2023/08/01 05:36:46;;;;;;;5.17;4.67;;;17.50;99.90;;;;;;6229037;23;20450;-88
2023/08/01 05:39:14;;;;;;;5.57;4.90;;;17.50;99.90;;;;;;6242810;22;20489;-88
2023/08/01 05:41:40;;;;;;;4.53;3.90;;;17.50;99.90;;;;;;6225916;23;20409;-88
2023/08/01 05:44:07;;;;;;;4.93;4.43;;;16.50;99.90;;;;;;6220974;23;20462;-88
2023/08/01 05:46:34;;;;;;;5.10;4.30;;;17.60;99.90;;;;;;6224971;22;20463;-87
2023/08/01 05:49:01;;;;;;;6.03;4.10;;;17.60;99.90;;;;;;6245144;22;20406;-87
2023/08/01 05:51:28;;;;;;;7.73;5.30;;;17.60;99.90;;;;;;6245077;22;20394;-87
2023/08/01 05:53:55;;;;;;;4.17;3.87;;;17.50;99.90;;;;;;6244896;22;20403;-87
2023/08/01 05:56:23;;;;;;;6.00;5.33;;;17.60;99.90;;;;;;6240721;22;20410;-88
2023/08/01 05:58:50;;;;;;;5.53;4.40;;;17.30;99.90;;;;;;6231353;23;20438;-87
2023/08/01 06:01:17;;;;;;;5.23;4.50;;;17.60;99.90;;;;;;6227917;23;20727;-88
2023/08/01 06:03:44;;;;;;;5.53;4.83;;;17.60;99.90;;;;;;6225467;23;20403;-88
2023/08/01 06:06:11;;;;;;;4.73;4.27;;;17.60;99.90;;;;;;6222998;23;20402;-87
2023/08/01 06:08:38;;;;;;;3.80;3.50;;;17.60;99.90;;;;;;6222040;23;20473;-88
2023/08/01 06:11:05;;;;;;;5.03;4.43;;;17.60;99.90;;;;;;6223422;23;20398;-88
2023/08/01 06:13:33;;;;;;;7.07;4.80;;;17.70;99.90;;;;;;6221357;23;20787;-88
2023/08/01 06:16:00;;;;;;;4.10;3.50;;;17.60;99.90;;;;;;6222255;23;20429;-88
2023/08/01 06:18:26;;;;;;;4.97;4.47;;;17.70;99.90;;;;;;6221525;23;20409;-88
2023/08/01 06:20:53;;;;;;;3.73;3.40;;;17.70;99.90;;;;;;6219813;23;20419;-88
2023/08/01 06:23:20;;;;;;;5.43;4.57;;;17.70;99.90;;;;;;6220242;23;20406;-88
2023/08/01 06:25:47;;;;;;;5.03;4.63;;;17.70;99.90;;;;;;6220002;23;20497;-88
2023/08/01 06:28:14;;;;;;;5.20;3.70;;;17.70;99.90;;;;;;6219298;23;20441;-87
2023/08/01 06:30:42;;;;;;;5.70;4.10;;;17.80;99.90;;;;;;6221112;23;20509;-88
2023/08/01 06:33:09;;;;;;;5.20;3.63;;;17.70;99.90;;;;;;6221055;23;20951;-87
2023/08/01 06:35:36;;;;;;;4.50;3.70;;;17.80;99.90;;;;;;6221201;23;20434;-89
2023/08/01 06:38:03;;;;;;;5.90;3.50;;;17.90;99.90;;;;;;6222196;23;20402;-89
2023/08/01 06:40:29;;;;;;;3.47;3.17;;;17.80;99.90;;;;;;6230700;23;20484;-89
2023/08/01 06:42:56;;;;;;;5.53;4.67;;;17.90;99.90;;;;;;6233672;23;20406;-89
2023/08/01 06:45:23;;;;;;;5.80;4.43;;;17.80;99.90;;;;;;6231153;23;20403;-88
2023/08/01 06:47:51;;;;;;;3.63;3.37;;;17.80;99.90;;;;;;6221517;23;20414;-88
2023/08/01 06:50:21;;;;;;;4.53;4.13;;;17.80;99.90;;;;;;6219887;23;20497;-88
2023/08/01 06:52:48;;;;;;;5.17;4.33;;;17.80;99.90;;;;;;6221779;23;20433;-88
2023/08/01 06:55:15;;;;;;;12.77;6.33;;;18.00;99.90;;;;;;6219390;23;20957;-87
2023/08/01 06:57:42;;;;;;;4.93;4.03;;;17.80;99.90;;;;;;6220141;23;20488;-87
2023/08/01 07:00:11;;;;;;;4.70;3.70;;;17.90;99.90;;;;;;6220065;23;20446;-88
2023/08/01 07:02:37;;;;;;;4.80;3.67;;;17.90;99.90;;;;;;6222226;23;20414;-87
2023/08/01 07:05:06;;;;;;;3.57;3.27;;;17.90;99.90;;;;;;6232998;22;20489;-88
2023/08/01 07:07:33;;;;;;;4.97;3.60;;;17.80;99.90;;;;;;6220755;23;20410;-88
2023/08/01 07:10:00;;;;;;;5.67;3.70;;;17.80;99.90;;;;;;6221248;23;20506;-88
2023/08/01 07:12:27;;;;;;;3.87;3.57;;;17.90;99.90;;;;;;6220623;23;20437;-88
2023/08/01 07:14:54;;;;;;;6.10;4.37;;;17.90;99.90;;;;;;6226398;23;20489;-88
2023/08/01 07:17:20;;;;;;;4.00;3.60;;;17.90;99.90;;;;;;6242182;22;20418;-88
2023/08/01 07:19:47;;;;;;;6.17;5.67;;;17.90;99.90;;;;;;6241780;22;20485;-87
2023/08/01 07:22:15;;;;;;;5.10;4.00;;;17.90;99.90;;;;;;6229926;23;20474;-87
2023/08/01 07:24:42;;;;;;;7.10;5.00;;;18.40;99.90;;;;;;6222507;23;20494;-88
2023/08/01 07:27:09;;;;;;;8.77;4.33;;;18.00;99.90;;;;;;6222737;23;20406;-88
2023/08/01 07:29:36;;;;;;;4.13;3.73;;;18.10;99.90;;;;;;6221861;23;20428;-88
2023/08/01 07:32:03;;;;;;;4.43;4.00;;;18.20;99.90;;;;;;6222813;23;20426;-89
2023/08/01 07:34:30;;;;;;;2.87;2.63;;;18.20;99.90;;;;;;6233777;23;20399;-88
2023/08/01 07:36:57;;;;;;;3.97;3.50;;;18.30;99.90;;;;;;6237914;23;20402;-88
2023/08/01 07:39:25;;;;;;;3.30;2.87;;;18.30;99.90;;;;;;6236254;23;20473;-88
2023/08/01 07:41:52;;;;;;;7.87;3.50;;;18.30;99.90;;;;;;6242266;23;20725;-88
2023/08/01 07:44:18;;;;;;;3.40;3.10;;;18.50;99.90;;;;;;6244057;22;20391;-87
2023/08/01 07:46:45;;;;;;;3.83;3.53;;;18.10;99.90;;;;;;6243933;22;20389;-86
2023/08/01 07:49:12;;;;;;;3.20;2.90;;;18.70;99.90;;;;;;6239321;22;20429;-86
2023/08/01 07:51:39;;;;;;;6.27;3.70;;;18.50;99.90;;;;;;6232180;23;20438;-88
2023/08/01 07:54:06;;;;;;;3.70;3.40;;;18.50;95.70;;;;;;6238769;23;20410;-88
2023/08/01 07:56:34;;;;;;;3.93;3.03;;;18.50;62.50;;;;;;6242994;23;20402;-87
2023/08/01 07:59:01;;;;;;;5.00;3.40;;;18.60;19.90;;;;;;6236609;23;20418;-88
2023/08/01 08:01:28;;;;;;;3.87;3.40;;;18.60;41.20;;;;;;6233599;23;20401;-87
2023/08/01 08:03:55;;;;;;;4.00;3.20;;;18.70;1.00;;;;;;6230313;23;20501;-87
2023/08/01 08:06:23;;;;;;;4.70;3.00;;;19.00;1.00;;;;;;6227624;23;20406;-87
2023/08/01 08:08:50;;;;;;;3.60;3.30;;;19.20;35.20;;;;;;6237161;23;20391;-87
2023/08/01 08:11:17;;;;;;;3.60;3.30;;;19.00;1.00;;;;;;6227420;23;20409;-87
2023/08/01 08:13:45;;;;;;;5.87;3.57;;;19.00;1.00;;;;;;6227543;23;20974;-86
2023/08/01 08:16:12;;;;;;;2.73;2.53;;;19.30;1.00;;;;;;6226991;23;20395;-88
2023/08/01 08:18:39;;;;;;;5.50;2.50;;;19.00;1.00;;;;;;6228833;23;20426;-88
2023/08/01 08:21:06;;;;;;;5.17;3.23;;;19.00;1.00;;;;;;6236132;22;20414;-87
2023/08/01 08:23:33;;;;;;;4.50;2.93;;;;;;;;;;6244519;22;20387;-88
2023/08/01 08:26:00;;;;;;;3.33;3.03;;;19.60;1.00;;;;;;6245020;22;20415;-87
2023/08/01 08:28:32;;;;;;;3.33;2.70;;;19.60;1.00;;;;;;6245315;22;20421;-86
2023/08/01 08:31:01;;;;;;;3.40;3.10;;;19.70;99.90;;;;;;6243711;22;20434;-86
2023/08/01 08:33:28;;;;;;;2.83;2.53;;;19.80;99.90;;;;;;6240599;23;20410;-86
2023/08/01 08:35:55;;;;;;;5.20;3.60;;;19.70;1.00;;;;;;6240450;23;20410;-87
2023/08/01 08:38:22;;;;;;;4.20;3.80;;;19.90;1.00;;;;;;6224703;23;20943;-87
2023/08/01 08:40:58;;;;;;;7.27;3.30;;;20.00;1.00;;;;;;6224118;23;20525;-87
2023/08/01 08:43:26;;;;;;;3.97;2.83;;;20.10;99.90;;;;;;6225306;23;20423;-87
2023/08/01 08:45:57;;;;;;;5.33;2.93;;;20.30;1.00;;;;;;6232737;22;20458;-86
2023/08/01 08:48:26;;;;;;;3.37;2.83;;;20.10;99.90;;;;;;6245576;22;20371;-86
2023/08/01 08:50:55;;;;;;;4.90;2.70;;;20.10;1.00;;;;;;6230766;22;20457;-88
2023/08/01 08:53:22;;;;;;;3.00;2.60;;;20.20;1.00;;;;;;6226489;23;20470;-88
2023/08/01 08:55:49;;;;;;;6.30;3.10;;;20.10;99.90;;;;;;6223696;23;20434;-87
2023/08/01 08:58:17;;;;;;;2.80;2.17;;;20.10;99.90;;;;;;6226247;23;20485;-87
2023/08/01 09:00:51;;;;;;;3.63;3.33;;;20.00;1.00;;;;;;6225258;23;20477;-88
2023/08/01 09:03:19;;;;;;;3.60;2.87;;;;;;;;;;6224121;23;20452;-88
2023/08/01 09:05:51;;;;;;;4.57;3.17;;;20.20;1.00;;;;;;6222710;23;20432;-88
2023/08/01 09:08:20;;;;;;;3.43;2.73;;;20.20;99.90;;;;;;6222965;23;20413;-88
2023/08/01 09:10:48;;;;;;;3.73;2.27;;;20.30;99.90;;;;;;6223343;23;20440;-88
2023/08/01 09:13:16;;;;;;;2.90;2.60;;;20.40;2.30;;;;;;6223945;23;20449;-87
2023/08/01 09:15:44;;;;;;;3.00;2.30;;;;;;;;;;6225591;23;20402;-87
2023/08/01 09:18:13;;;;;;;2.17;2.07;;;20.60;94.80;;;;;;6224127;23;20417;-88
2023/08/01 09:20:44;;;;;;;1.90;1.80;;;20.40;1.00;;;;;;6225203;23;20793;-88
2023/08/01 09:23:13;;;;;;;2.30;2.10;;;20.80;99.90;;;;;;6244134;22;20449;-87
2023/08/01 09:25:40;;;;;;;3.00;2.50;;;;;;;;;;6241658;23;20437;-87
2023/08/01 09:28:21;;;;;;;6.33;4.00;;;20.90;1.00;;;;;;6237484;22;20393;-87
2023/08/01 09:30:49;;;;;;;3.73;2.40;;;;;;;;;;6243748;22;20414;-88
2023/08/01 09:33:17;;;;;;;2.43;1.90;;;21.40;1.00;;;;;;6243027;22;20413;-88
2023/08/01 09:35:45;;;;;;;2.10;2.00;;;;;;;;;;6228252;23;20397;-89
2023/08/01 09:38:15;;;;;;;3.70;3.00;;;21.10;99.90;;;;;;6225995;23;20418;-89
2023/08/01 09:40:43;;;;;;;4.37;1.97;;;21.10;99.90;;;;;;6225070;23;20449;-88
2023/08/01 09:43:11;;;;;;;2.60;2.40;;;21.00;1.00;;;;;;6229258;23;20414;-88
2023/08/01 09:45:55;;;;;;;2.60;2.40;;;20.50;99.90;;;;;;6228251;23;20410;-88
2023/08/01 09:48:26;;;;;;;2.67;2.03;;;20.30;99.90;;;;;;6229356;23;20884;-88
2023/08/01 09:50:55;;;;;;;1.60;1.50;;;;;;;;;;6234309;23;20462;-87
2023/08/01 09:53:24;;;;;;;1.60;1.50;;;20.10;1.00;;;;;;6243870;22;20403;-87
2023/08/01 09:56:01;;;;;;;2.23;1.87;;;20.20;1.00;;;;;;6244217;22;20385;-88
2023/08/01 09:58:34;;;;;;;1.90;1.50;;;20.20;1.00;;;;;;6243948;22;20400;-88
2023/08/01 10:01:08;;;;;;;2.03;1.50;;;20.40;1.00;;;;;;6235715;23;20437;-89
2023/08/01 10:03:35;;;;;;;5.03;2.20;;;;;;;;;;6230809;23;20418;-88
2023/08/01 10:06:02;;;;;;;1.63;1.53;;;;;;;;;;6229796;23;20402;-88
2023/08/01 10:08:34;;;;;;;1.57;1.30;;;20.60;1.00;;;;;;6230314;23;21008;-88
2023/08/01 10:11:05;;;;;;;3.57;1.37;;;20.60;1.00;;;;;;6227663;23;20433;-87
2023/08/01 10:13:33;;;;;;;2.63;2.30;;;20.60;1.00;;;;;;6230146;23;20426;-88
2023/08/01 10:16:02;;;;;;;3.83;1.90;;;20.70;5.70;;;;;;6224326;23;20398;-88
2023/08/01 10:18:30;;;;;;;2.47;1.80;;;20.50;1.00;;;;;;6226141;23;20470;-89
2023/08/01 10:20:58;;;;;;;1.83;1.73;;;20.50;90.30;;;;;;6229696;22;20461;-88
2023/08/01 10:23:26;;;;;;;2.03;1.67;;;20.20;99.90;;;;;;6225287;23;20889;-86
2023/08/01 10:25:55;;;;;;;1.57;1.40;;;19.80;99.90;;;;;;6226285;23;20407;-88
2023/08/01 10:28:32;;;;;;;2.70;2.50;;;20.20;99.90;;;;;;6223022;23;20518;-88
2023/08/01 10:31:08;;;;;;;3.77;2.63;;;20.20;99.90;;;;;;6226336;23;20775;-88
2023/08/01 10:33:36;;;;;;;2.20;2.00;;;;;;;;;;6233323;22;20382;-88
2023/08/01 10:36:14;;;;;;;4.37;3.20;;;20.40;1.00;;;;;;6243628;22;20394;-88
2023/08/01 10:38:50;;;;;;;4.83;2.33;;;20.30;99.90;;;;;;6243531;22;20418;-88
2023/08/01 10:41:23;;;;;;;4.13;2.40;;;20.20;1.00;;;;;;6235977;22;20446;-89
2023/08/01 10:43:50;;;;;;;2.13;1.63;;;;;;;;;;6226085;23;20395;-89
2023/08/01 10:46:17;;;;;;;2.10;1.90;;;;;;;;;;6222591;23;20424;-88
2023/08/01 10:48:52;;;;;;;3.10;2.17;;;20.60;1.00;;;;;;6222222;23;20411;-88
2023/08/01 10:51:19;;;;;;;1.40;1.30;;;20.40;99.90;;;;;;6221665;23;20406;-87
2023/08/01 10:53:47;;;;;;;1.90;1.00;;;20.10;99.90;;;;;;6222259;23;20442;-90
2023/08/01 10:56:19;;;;;;;1.30;1.20;;;20.10;99.90;;;;;;6220509;23;20489;-89
2023/08/01 10:58:48;;;;;;;1.97;1.10;;;18.60;99.90;;;;;;6221673;23;20731;-88
2023/08/01 11:01:15;;;;;;;2.00;1.20;;;18.30;99.90;;;;;;6220581;23;20446;-89
2023/08/01 11:03:42;;;;;;;0.97;0.87;;;18.30;99.90;;;;;;6222697;23;20416;-87
2023/08/01 11:06:09;;;;;;;1.60;1.10;;;;;;;;;;6221760;23;20411;-88
2023/08/01 11:08:37;;;;;;;1.27;1.10;;;18.30;99.90;;;;;;6223440;23;20406;-88
2023/08/01 11:11:06;;;;;;;3.90;1.57;;;18.30;99.90;;;;;;6224994;23;20422;-88
2023/08/01 11:13:34;;;;;;;1.33;1.10;;;18.00;99.90;;;;;;6220171;23;20409;-88
2023/08/01 11:16:04;;;;;;;2.33;1.57;;;18.00;99.90;;;;;;6220843;23;20794;-88
2023/08/01 11:18:31;;;;;;;2.17;2.07;;;18.00;99.90;;;;;;6229457;23;20423;-88
2023/08/01 11:20:58;;;;;;;1.53;1.43;;;18.00;99.90;;;;;;6227249;23;20541;-88
2023/08/01 11:23:30;;;;;;;6.93;1.60;;;18.00;99.90;;;;;;6224373;23;20426;-88
2023/08/01 11:25:57;;;;;;;3.17;1.27;;;18.10;99.90;;;;;;6241508;22;20421;-86
2023/08/01 11:28:24;;;;;;;2.80;1.60;;;;;;;;;;6244191;22;20398;-87
2023/08/01 11:30:52;;;;;;;3.70;1.50;;;;;;;;;;6229569;22;20414;-88
2023/08/01 11:33:22;;;;;;;2.40;2.20;;;17.80;99.90;;;;;;6225129;23;20414;-88
2023/08/01 11:35:53;;;;;;;2.53;2.33;;;17.90;99.90;;;;;;6225552;23;20418;-89
2023/08/01 11:38:21;;;;;;;3.17;2.30;;;17.80;99.90;;;;;;6240242;22;20451;-87
2023/08/01 11:40:50;;;;;;;3.10;2.43;;;17.70;99.90;;;;;;6244099;22;20440;-87
2023/08/01 11:43:16;;;;;;;3.00;2.70;;;17.60;99.90;;;;;;6244669;22;20416;-88
2023/08/01 11:45:50;;;;;;;4.43;2.87;;;17.30;99.90;;;;;;6222992;23;20430;-89
2023/08/01 11:48:23;;;;;;;5.40;3.20;;;17.60;99.90;;;;;;6223120;23;20406;-88
2023/08/01 11:50:50;;;;;;;6.13;3.60;;;17.60;99.90;;;;;;6222811;23;21031;-88
2023/08/01 11:53:21;;;;;;;8.23;3.63;;;17.60;99.90;;;;;;6231911;23;20430;-88
2023/08/01 11:55:49;;;;;;;4.43;3.50;;;17.60;99.90;;;;;;6231161;23;20417;-87
2023/08/01 11:58:16;;;;;;;4.03;3.73;;;17.70;99.90;;;;;;6237296;23;20409;-87
2023/08/01 12:00:43;;;;;;;5.43;4.00;;;17.70;99.90;;;;;;6236258;23;20449;-87
2023/08/01 12:03:13;;;;;;;5.17;3.47;;;17.60;99.90;;;;;;6226640;23;20416;-88
2023/08/01 12:05:45;;;;;;;6.30;5.40;;;17.70;99.90;;;;;;6225498;23;20492;-88
2023/08/01 12:08:13;;;;;;;3.93;3.63;;;17.80;99.90;;;;;;6228954;23;20801;-88
2023/08/01 12:10:41;;;;;;;6.80;4.83;;;17.90;99.90;;;;;;6223214;23;20421;-88
2023/08/01 12:13:19;;;;;;;4.37;3.90;;;17.90;99.90;;;;;;6224523;23;20893;-87
2023/08/01 12:15:47;;;;;;;5.07;4.33;;;18.00;99.90;;;;;;6228493;23;20378;-86
2023/08/01 12:18:21;;;;;;;5.37;4.87;;;18.40;99.90;;;;;;6236972;22;20434;-89
2023/08/01 12:20:49;;;;;;;4.60;4.17;;;18.40;99.90;;;;;;6232285;23;20481;-88
2023/08/01 12:23:16;;;;;;;4.07;3.70;;;18.50;1.00;;;;;;6232227;23;20407;-88
2023/08/01 12:25:43;;;;;;;4.10;3.70;;;18.60;12.80;;;;;;6225756;23;20406;-88
2023/08/01 12:28:10;;;;;;;6.10;4.50;;;18.60;1.00;;;;;;6225222;23;20411;-88
2023/08/01 12:30:37;;;;;;;5.27;3.67;;;18.40;1.00;;;;;;6231240;23;20430;-87
2023/08/01 12:33:03;;;;;;;4.70;4.20;;;18.60;1.00;;;;;;6243950;22;20433;-87
2023/08/01 12:35:30;;;;;;;4.67;3.43;;;18.60;1.00;;;;;;6244961;22;20397;-88
2023/08/01 12:37:59;;;;;;;4.77;3.80;;;18.60;1.00;;;;;;6241098;22;20451;-88
2023/08/01 12:40:26;;;;;;;4.17;3.73;;;18.70;1.00;;;;;;6244729;22;20429;-87
2023/08/01 12:42:52;;;;;;;3.37;3.07;;;19.30;1.00;;;;;;6245622;22;20434;-86
2023/08/01 12:45:19;;;;;;;4.83;4.37;;;19.30;1.00;;;;;;6245523;22;20375;-86
2023/08/01 12:47:47;;;;;;;3.93;3.63;;;19.10;1.00;;;;;;6243243;22;20394;-88
2023/08/01 12:50:14;;;;;;;4.10;3.73;;;19.40;1.00;;;;;;6241426;23;20414;-87
2023/08/01 12:52:41;;;;;;;4.43;4.03;;;19.50;99.90;;;;;;6241051;23;20393;-87
2023/08/01 12:55:09;;;;;;;7.00;4.17;;;19.50;1.00;;;;;;6242486;23;20410;-87
2023/08/01 12:57:36;;;;;;;4.23;3.87;;;19.40;99.90;;;;;;6237098;22;20406;-88
2023/08/01 13:00:03;;;;;;;6.67;3.90;;;19.40;99.90;;;;;;6229436;23;20742;-88
2023/08/01 13:02:30;;;;;;;5.00;3.97;;;19.40;99.90;;;;;;6227957;23;20446;-88
2023/08/01 13:04:58;;;;;;;5.40;4.40;;;19.50;99.90;;;;;;6239086;22;20402;-88
2023/08/01 13:07:25;;;;;;;4.80;3.87;;;19.50;99.90;;;;;;6238711;22;20421;-88
2023/08/01 13:09:52;;;;;;;4.80;3.33;;;;;;;;;;6230050;23;20434;-89
2023/08/01 13:12:20;;;;;;;5.00;4.10;;;19.50;1.00;;;;;;6228858;23;20451;-88
2023/08/01 13:14:47;;;;;;;3.73;3.17;;;19.70;99.90;;;;;;6230011;23;20927;-89
2023/08/01 13:17:14;;;;;;;7.47;5.03;;;19.90;99.90;;;;;;6226796;23;20489;-88
2023/08/01 13:19:41;;;;;;;4.53;4.07;;;19.80;99.90;;;;;;6226617;23;20430;-88
2023/08/01 13:22:08;;;;;;;6.30;3.90;;;19.90;44.80;;;;;;6226171;23;20529;-88
2023/08/01 13:24:35;;;;;;;4.90;3.50;;;19.80;1.00;;;;;;6224935;23;20518;-89
2023/08/01 13:27:02;;;;;;;6.33;3.80;;;20.40;1.00;;;;;;6225981;23;20959;-89
2023/08/01 13:29:30;;;;;;;5.93;3.53;;;20.20;1.00;;;;;;6225038;23;20428;-89
2023/08/01 13:31:57;;;;;;;5.97;3.70;;;20.20;1.00;;;;;;6225321;23;20729;-89
2023/08/01 13:34:24;;;;;;;7.47;4.60;;;20.10;99.90;;;;;;6237502;23;20413;-89
2023/08/01 13:36:52;;;;;;;4.23;3.90;;;;;;;;;;6235696;23;20403;-88
2023/08/01 13:39:18;;;;;;;8.13;6.57;;;20.40;99.90;;;;;;6226076;23;20426;-88
2023/08/01 13:41:46;;;;;;;5.37;3.80;;;;;;;;;;6224883;23;20449;-88
2023/08/01 13:44:13;;;;;;;5.53;4.57;;;;;;;;;;6225876;23;20472;-88
2023/08/01 13:46:41;;;;;;;6.90;4.63;;;20.80;99.90;;;;;;6226528;23;20394;-88
2023/08/01 13:49:09;;;;;;;4.50;3.67;;;20.50;99.90;;;;;;6225664;23;20454;-89
2023/08/01 13:51:39;;;;;;;4.17;2.97;;;20.80;23.20;;;;;;6240748;23;20378;-88
2023/08/01 13:54:11;;;;;;;3.50;3.20;;;20.90;1.00;;;;;;6233326;23;20386;-88
2023/08/01 13:56:39;;;;;;;5.87;4.20;;;21.00;1.00;;;;;;6237094;23;20398;-89
2023/08/01 13:59:06;;;;;;;5.50;3.97;;;21.00;99.90;;;;;;6236070;23;20455;-88
2023/08/01 14:01:33;;;;;;;5.20;3.30;;;21.00;1.00;;;;;;6233228;23;20461;-88
2023/08/01 14:04:01;;;;;;;6.50;4.10;;;21.20;1.00;;;;;;6242485;22;20398;-88
2023/08/01 14:06:28;;;;;;;3.77;3.47;;;21.40;94.30;;;;;;6243614;22;20460;-87
2023/08/01 14:08:56;;;;;;;4.10;3.53;;;21.80;1.00;;;;;;6237659;22;20427;-88
2023/08/01 14:11:23;;;;;;;4.53;4.10;;;21.50;99.90;;;;;;6235212;23;20413;-87
2023/08/01 14:13:50;;;;;;;6.90;3.30;;;21.60;1.00;;;;;;6244699;22;20383;-87
2023/08/01 14:16:17;;;;;;;4.13;3.23;;;22.20;1.00;;;;;;6244392;22;20417;-88
2023/08/01 14:18:44;;;;;;;4.50;3.27;;;21.60;99.90;;;;;;6230337;22;20501;-88
2023/08/01 14:21:13;;;;;;;3.67;3.37;;;22.00;1.00;;;;;;6224772;23;20430;-88
2023/08/01 14:23:41;;;;;;;7.00;3.67;;;22.00;23.40;;;;;;6243579;22;20397;-88
2023/08/01 14:26:08;;;;;;;6.50;4.27;;;22.20;99.90;;;;;;6244438;22;20392;-88
2023/08/01 14:28:35;;;;;;;5.93;5.33;;;21.90;1.00;;;;;;6237362;22;20410;-89
2023/08/01 14:31:02;;;;;;;5.97;4.60;;;;;;;;;;6231421;23;20490;-88
2023/08/01 14:33:30;;;;;;;4.10;3.50;;;22.10;99.90;;;;;;6241839;22;20421;-88
2023/08/01 14:35:57;;;;;;;3.50;3.20;;;21.90;1.00;;;;;;6244455;22;20394;-88
2023/08/01 14:38:25;;;;;;;4.23;3.40;;;22.00;1.00;;;;;;6233370;23;20725;-89
2023/08/01 14:40:53;;;;;;;3.47;3.10;;;22.10;27.40;;;;;;6230278;23;20427;-88
2023/08/01 14:43:21;;;;;;;4.53;2.93;;;22.20;97.60;;;;;;6228190;23;20450;-88
2023/08/01 14:45:51;;;;;;;4.57;3.30;;;22.20;1.00;;;;;;6230365;23;20437;-89
2023/08/01 14:48:20;;;;;;;7.93;3.97;;;;;;;;;;6231460;23;20367;-89
2023/08/01 14:50:48;;;;;;;4.90;3.90;;;22.30;1.00;;;;;;6224863;23;20818;-88
2023/08/01 14:53:15;;;;;;;4.50;4.03;;;22.50;99.90;;;;;;6224922;23;20407;-88
2023/08/01 14:55:44;;;;;;;6.93;2.93;;;22.30;1.00;;;;;;6224002;23;20438;-89
2023/08/01 14:58:11;;;;;;;3.60;3.30;;;;;;;;;;6229076;23;20403;-88
2023/08/01 15:00:38;;;;;;;6.90;3.50;;;22.20;1.00;;;;;;6225764;23;20437;-89
2023/08/01 15:03:05;;;;;;;8.20;3.83;;;22.20;99.90;;;;;;6223524;23;20470;-89
2023/08/01 15:05:32;;;;;;;3.57;2.67;;;;;;;;;;6222620;23;20402;-89
2023/08/01 15:08:00;;;;;;;3.33;3.00;;;22.10;99.90;;;;;;6239072;23;20415;-90
2023/08/01 15:10:27;;;;;;;3.23;2.40;;;21.50;99.90;;;;;;6233480;23;20789;-89
2023/08/01 15:12:55;;;;;;;2.93;2.23;;;21.80;1.00;;;;;;6225367;23;20403;-88
2023/08/01 15:15:23;;;;;;;2.80;2.60;;;;;;;;;;6224311;23;20418;-88
2023/08/01 15:17:49;;;;;;;2.83;2.50;;;21.60;95.10;;;;;;6226386;23;20402;-88
2023/08/01 15:20:16;;;;;;;4.10;3.70;;;21.50;1.00;;;;;;6224527;23;20418;-89
2023/08/01 15:22:44;;;;;;;5.57;2.73;;;;;;;;;;6223758;23;20453;-88
2023/08/01 15:25:10;;;;;;;5.73;3.50;;;19.60;99.90;;;;;;6224655;23;20421;-89
2023/08/01 15:27:37;;;;;;;8.30;2.50;;;19.40;99.90;;;;;;6225108;23;20928;-87
2023/08/01 15:30:08;;;;;;;10.07;3.20;;;18.20;1.00;;;;;;6238499;23;20406;-87
2023/08/01 15:32:35;;;;;;;4.50;3.27;;;17.40;1.00;;;;;;6243056;22;20422;-88
2023/08/01 15:35:02;;;;;;;7.57;3.37;;;16.90;99.90;;;;;;6226336;23;20521;-86
2023/08/01 15:37:29;;;;;;;3.97;2.97;;;16.90;99.90;;;;;;6238166;23;20409;-87
2023/08/01 15:39:56;;;;;;;3.50;3.07;;;16.80;99.90;;;;;;6226667;23;20440;-86
2023/08/01 15:42:23;;;;;;;7.17;4.60;;;16.80;99.90;;;;;;6226316;23;20476;-87
2023/08/01 15:44:50;;;;;;;9.97;4.50;;;16.90;99.90;;;;;;6225757;23;20420;-87
2023/08/01 15:47:18;;;;;;;4.00;3.40;;;17.00;99.90;;;;;;6224078;23;20403;-87
2023/08/01 15:49:45;;;;;;;4.50;3.77;;;17.00;99.90;;;;;;6223213;23;20458;-88
2023/08/01 15:52:12;;;;;;;6.23;4.60;;;17.00;99.90;;;;;;6225421;23;20427;-88
2023/08/01 15:54:38;;;;;;;4.90;3.80;;;17.10;99.90;;;;;;6224978;23;20475;-88
2023/08/01 15:57:06;;;;;;;4.27;3.37;;;17.10;99.90;;;;;;6228578;23;20412;-86
2023/08/01 15:59:33;;;;;;;4.77;3.70;;;17.10;99.90;;;;;;6223389;23;20432;-86
2023/08/01 16:02:00;;;;;;;3.10;2.90;;;17.30;99.90;;;;;;6223684;23;20826;-86
2023/08/01 16:04:28;;;;;;;5.90;4.57;;;17.50;99.90;;;;;;6236871;22;20413;-87
2023/08/01 16:06:55;;;;;;;3.40;3.10;;;17.70;99.90;;;;;;6224010;23;20445;-86
2023/08/01 16:09:22;;;;;;;4.43;2.47;;;17.90;99.90;;;;;;6227499;23;20426;-88
2023/08/01 16:11:48;;;;;;;3.70;3.23;;;18.00;99.90;;;;;;6231482;23;20443;-87
2023/08/01 16:14:16;;;;;;;4.90;3.53;;;;;;;;;;6243677;22;20429;-87
2023/08/01 16:16:43;;;;;;;6.40;2.93;;;18.00;99.90;;;;;;6228225;23;20901;-88
2023/08/01 16:19:10;;;;;;;4.40;3.40;;;18.00;99.90;;;;;;6225791;23;20987;-88
2023/08/01 16:21:38;;;;;;;3.87;2.80;;;18.00;99.90;;;;;;6223120;23;20900;-87
2023/08/01 16:24:05;;;;;;;4.93;3.00;;;18.00;99.90;;;;;;6222555;23;20458;-88
2023/08/01 16:26:32;;;;;;;3.27;2.83;;;18.00;99.90;;;;;;6230787;23;20417;-88
2023/08/01 16:29:01;;;;;;;9.83;5.57;;;18.20;99.90;;;;;;6243423;22;20465;-88
2023/08/01 16:31:28;;;;;;;2.80;2.30;;;18.10;99.90;;;;;;6236624;23;20387;-87
2023/08/01 16:33:55;;;;;;;2.63;2.43;;;18.20;99.90;;;;;;6228390;23;20429;-88
2023/08/01 16:36:24;;;;;;;4.30;2.47;;;;;;;;;;6228421;23;20406;-89
2023/08/01 16:38:53;;;;;;;2.37;2.17;;;18.40;54.20;;;;;;6225884;23;20991;-88
2023/08/01 16:41:22;;;;;;;2.90;2.53;;;;;;;;;;6234522;23;20402;-88
2023/08/01 16:43:48;;;;;;;5.17;3.23;;;18.60;1.00;;;;;;6239699;22;20553;-88
2023/08/01 16:46:16;;;;;;;4.60;3.77;;;;;;;;;;6236101;23;20425;-88
2023/08/01 16:48:43;;;;;;;3.50;2.67;;;;;;;;;;6226548;23;20426;-87
2023/08/01 16:51:10;;;;;;;3.50;3.20;;;18.30;1.00;;;;;;6228994;23;20493;-87
2023/08/01 16:53:37;;;;;;;4.70;3.90;;;18.20;1.00;;;;;;6233654;22;20406;-89
2023/08/01 16:56:05;;;;;;;3.90;2.83;;;18.10;1.00;;;;;;6237212;23;20416;-88
2023/08/01 16:58:32;;;;;;;4.30;3.30;;;18.00;99.90;;;;;;6241497;23;20443;-89
2023/08/01 17:00:59;;;;;;;3.40;2.50;;;18.00;1.00;;;;;;6240078;23;20426;-88
2023/08/01 17:03:26;;;;;;;8.07;3.60;;;18.00;99.90;;;;;;6238597;23;20469;-89
2023/08/01 17:05:53;;;;;;;3.53;3.23;;;18.00;1.00;;;;;;6231484;23;20968;-88
2023/08/01 17:08:19;;;;;;;3.70;2.60;;;18.20;1.00;;;;;;6238521;23;20442;-88
2023/08/01 17:10:47;;;;;;;4.57;3.80;;;;;;;;;;6235616;23;20429;-88
2023/08/01 17:13:15;;;;;;;4.73;4.33;;;18.30;1.00;;;;;;6229194;23;20399;-88
2023/08/01 17:15:42;;;;;;;3.87;2.20;;;17.90;1.00;;;;;;6229294;22;20448;-88
2023/08/01 17:18:09;;;;;;;4.53;4.13;;;18.10;99.90;;;;;;6230050;23;20410;-87
2023/08/01 17:20:36;;;;;;;3.77;2.70;;;;;;;;;;6229784;23;20482;-88
2023/08/01 17:23:03;;;;;;;5.07;3.50;;;18.10;99.90;;;;;;6244226;22;20457;-88
2023/08/01 17:25:30;;;;;;;3.87;3.50;;;18.10;1.00;;;;;;6242946;23;20402;-88
2023/08/01 17:27:57;;;;;;;3.70;2.20;;;;;;;;;;6229881;23;20390;-88
2023/08/01 17:30:26;;;;;;;14.13;9.90;;;18.00;99.90;;;;;;6241645;22;20413;-86
2023/08/01 17:32:52;;;;;;;2.17;1.97;;;17.70;99.90;;;;;;6244843;22;20386;-89
2023/08/01 17:35:19;;;;;;;2.93;1.70;;;17.90;99.90;;;;;;6235713;22;20395;-87
2023/08/01 17:37:46;;;;;;;2.30;2.10;;;17.80;53.30;;;;;;6225404;23;20406;-88
2023/08/01 17:40:13;;;;;;;2.90;2.23;;;17.70;1.00;;;;;;6225812;23;20458;-88
2023/08/01 17:42:40;;;;;;;3.73;2.47;;;17.70;47.00;;;;;;6231163;23;20502;-88
2023/08/01 17:45:09;;;;;;;4.87;2.53;;;17.80;1.50;;;;;;6229580;23;20411;-88
2023/08/01 17:47:38;;;;;;;5.03;3.83;;;17.80;1.00;;;;;;6229464;23;20477;-87
2023/08/01 17:50:06;;;;;;;3.60;3.27;;;17.80;99.90;;;;;;6237093;23;20738;-88
2023/08/01 17:52:33;;;;;;;4.57;3.50;;;18.10;99.90;;;;;;6236731;23;20410;-89
2023/08/01 17:55:00;;;;;;;3.60;3.10;;;;;;;;;;6235059;23;20417;-88
2023/08/01 17:57:27;;;;;;;2.30;2.10;;;17.90;1.00;;;;;;6238059;23;20407;-89
2023/08/01 17:59:54;;;;;;;6.17;3.93;;;18.10;51.70;;;;;;6240162;23;20414;-87